AirNav  
 
 1457 users online  

UT46 Tooele Army Depot (South Area) Heliport
Tooele, Utah, USA

GOING TO TOOELE?


FAA INFORMATION EFFECTIVE 12 OCTOBER 2017

Location

FAA Identifier: UT46
Lat/Long: 40-19-02.8040N / 112-18-30.8120W
40-19.046733N / 112-18.513533W
40.3174456 / -112.3085589
(estimated)
Elevation: 5355 ft. / 1632 m (estimated)
Variation: 14E (1990)
From city: 8 miles N of TOOELE, UT
Time zone: UTC -6 (UTC -7 during Standard Time)
Zip code: 84071

Heliport Operations

Heliport use: Private use. Permission required prior to landing
Activation date: 11/2002
Control tower: no
ARTCC: SALT LAKE CITY CENTER
FSS: CEDAR CITY FLIGHT SERVICE STATION
Attendance: UNATNDD
Wind indicator: yes
Segmented circle: no

Heliport Communications

WX AWOS-3 at TVY (18 nm N): 119.725 (435-882-6648)

Nearby radio navigation aids

VOR radial/distance  VOR name  Freq  Var
FFUr263/17.0FAIRFIELD VORTAC116.6016E
PVUr268/27.6PROVO VOR/DME108.4015E
TCHr189/35.3WASATCH VORTAC116.8016E

Heliport Services

Runway Information

Helipad H1

Dimensions: 75 x 75 ft. / 23 x 23 m
Surface: concrete
Runway edge lights: PERIMETER LIGHTS.
Traffic pattern: leftleft

Heliport Ownership and Management from official FAA records

Ownership: Privately-owned
Owner: UNITED STATES ARMY
CHIEF, FACILITIES ENGINEERING
TOOELE, UT 84074
Phone 435-833-2114
Manager: SDSTE-IO-E, TOOELE ARMY DEPOT
TOOELE, UT 84074
Phone 801-833-2114

Instrument Procedures

There are no published instrument procedures at UT46.

Some nearby airports with instrument procedures:

KTVY - Bolinder Field-Tooele Valley Airport (18 nm N)
U42 - South Valley Regional Airport (23 nm NE)
KPVU - Provo Municipal Airport (27 nm E)
KDPG - Michael Army Airfield (Dugway Proving Ground) (30 nm W)
KSLC - Salt Lake City International Airport (32 nm NE)
 
Loc | Ops | Rwys | IFR | FBO | Links
Com | Nav | Svcs | Stats | Notes

TAC Air
 
Area around UT46 (Tooele Army Depot (South Area) Heliport)
 
Road maps at: MapQuest Bing Google
 
Aerial photo
No photo
 
Sectional chart

 
Airport distance calculator
Flying to Tooele Army Depot (South Area) Heliport? Find the distance to fly.

From to UT46

Sunrise and sunset
Times for 17-Oct-2017
 Local
(UTC-6)
 Zulu
(UTC)
Morning civil twilight07:1613:16
Sunrise07:4313:43
Sunset18:4600:46
Evening civil twilight19:1301:13

Current date and time
Zulu (UTC)  17-Oct-2017 20:35:35
Local (UTC-6)  17-Oct-2017 14:35:35
 
METAR
KTVY 
18nm N 
172015Z AUTO 01004KT 10SM CLR 15/00 A3020 RMK AO2
KU42 
23nm NE 
172015Z AUTO 00000KT 10SM CLR 20/M02 A3020 RMK AO1 T01961019
KPVU 
28nm E 
171956Z 26003KT 10SM CLR 17/M02 A3022 RMK AO2 SLP218 T01671017
KDPG 
30nm W 
171855Z 32001KT 10SM BKN250 16/M09 A3025 RMK SLP228 NOSPECI T01581092
KSLC 
32nm NE 
171954Z 07003KT 10SM SCT200 BKN250 18/M03 A3020 RMK AO2 SLP205 T01831033 $
TAF
KPVU 
28nm E 
171735Z 1718/1818 26005KT P6SM BKN250 FM180300 VRB03KT P6SM BKN250 FM180800 13005KT P6SM SCT200
KSLC 
32nm NE 
171735Z 1718/1824 33006KT P6SM BKN250 FM180400 16005KT P6SM BKN250 FM181900 33006KT P6SM BKN250
NOTAMs
Click for the latest NOTAMs
NOTAMs are issued by the DoD/FAA and will open in a separate window not controlled by AirNav.

 

 
 

Would you like to see your business listed on this page?

 If your business provides an interesting product or service to pilots, flight crews, aircraft, or users of the Tooele Army Depot (South Area) Heliport, you should consider listing it here.  To start the listing process, click on the button below
 
Add a business
 

Other Pages about Tooele Army Depot (South Area) Heliport

Update a link
 
Copyright © AirNav, LLC. All rights reserved. Privacy Policy  Contact